Time;durP1;ratioP1;P1;durP2;ratioP2;P2;SDS_P1;SDS_P2;PMS_P1;PMS_P2;Temp;Humidity;BMP_temperature;BMP_pressure;BME280_temperature;BME280_humidity;BME280_pressure;Samples;Min_cycle;Max_cycle;Signal;HPM_P1;HPM_P2
2023/03/22 00:00:16;;;;;;;9.90;6.88;;;;;;;11.34;76.49;101244.38;5107548;28;20066;-93
2023/03/22 00:03:14;;;;;;;11.52;7.13;;;;;;;11.31;76.67;101254.69;5105606;28;20027;-92
2023/03/22 00:05:42;;;;;;;10.55;6.65;;;;;;;11.18;76.65;101231.25;5103026;28;20063;-93
2023/03/22 00:08:12;;;;;;;10.82;6.65;;;;;;;11.29;76.73;101252.78;5095873;28;20031;-92
2023/03/22 00:10:46;;;;;;;9.25;6.18;;;;;;;11.25;76.81;101238.63;5092474;28;20477;-92
2023/03/22 00:13:14;;;;;;;9.20;6.40;;;;;;;11.31;76.47;101246.84;5092143;28;20122;-92
2023/03/22 00:15:58;;;;;;;8.57;6.18;;;;;;;11.27;76.75;101238.72;5086643;28;20382;-92
2023/03/22 00:18:25;;;;;;;9.85;6.60;;;;;;;11.25;76.78;101249.09;5099232;28;20443;-92
2023/03/22 00:20:52;;;;;;;11.00;6.50;;;;;;;11.27;76.41;101242.22;5101232;28;20024;-91
2023/03/22 00:23:19;;;;;;;9.32;6.80;;;;;;;11.19;76.57;101233.94;5091989;28;20028;-92
2023/03/22 00:25:45;;;;;;;10.13;6.15;;;;;;;11.22;76.64;101243.69;5094587;28;20076;-91
2023/03/22 00:28:15;;;;;;;9.55;6.47;;;;;;;11.31;76.42;101259.00;5102362;28;20024;-92
2023/03/22 00:30:57;;;;;;;9.02;6.38;;;;;;;11.27;76.49;101255.31;5101082;28;20027;-92
2023/03/22 00:33:24;;;;;;;8.65;6.28;;;;;;;11.33;76.53;101263.50;5101092;28;20019;-92
2023/03/22 00:36:01;;;;;;;9.48;6.82;;;;;;;11.25;76.59;101251.69;5093333;28;20027;-93
2023/03/22 00:38:37;;;;;;;10.10;6.80;;;;;;;11.31;76.24;101270.38;5083759;28;20110;-91
2023/03/22 00:41:25;;;;;;;10.43;7.13;;;;;;;11.35;76.54;101264.50;5099512;28;20041;-89
2023/03/22 00:43:55;;;;;;;10.43;6.45;;;;;;;11.28;76.48;101261.44;5081487;28;20028;-92
2023/03/22 00:46:24;;;;;;;10.23;7.03;;;;;;;11.18;76.34;101245.22;5081896;28;20020;-91
2023/03/22 00:49:02;;;;;;;9.02;6.57;;;;;;;11.12;76.53;101225.66;5108363;28;20075;-91
2023/03/22 00:51:31;;;;;;;11.15;6.28;;;;;;;11.24;76.37;101244.69;5105598;28;20023;-91
2023/03/22 00:54:00;;;;;;;9.80;6.60;;;;;;;11.33;76.45;101254.78;5082375;28;20028;-91
2023/03/22 00:56:36;;;;;;;8.88;6.32;;;;;;;11.20;76.38;101230.53;5095170;28;20024;-91
2023/03/22 00:59:03;;;;;;;9.32;6.30;;;;;;;11.07;76.32;101204.47;5111903;27;20126;-91
2023/03/22 01:01:29;;;;;;;10.38;6.50;;;;;;;11.07;76.22;101211.41;5098529;28;20040;-91
2023/03/22 01:03:56;;;;;;;9.35;6.68;;;;;;;11.32;76.66;101256.47;5095831;28;20485;-91
2023/03/22 01:06:21;;;;;;;7.65;5.95;;;;;;;11.22;76.36;101238.47;5079384;28;20089;-92
2023/03/22 01:08:53;;;;;;;8.77;6.47;;;;;;;11.14;76.38;101224.94;5107063;28;20039;-92
2023/03/22 01:11:26;;;;;;;8.18;6.15;;;;;;;11.32;76.70;101258.19;5091303;28;20098;-92
2023/03/22 01:14:00;;;;;;;8.43;5.90;;;;;;;11.25;76.45;101240.34;5103225;28;20043;-93
2023/03/22 01:16:25;;;;;;;8.25;6.13;;;;;;;11.18;76.58;101224.31;5094295;28;20027;-91
2023/03/22 01:19:05;;;;;;;9.30;6.25;;;;;;;11.33;76.41;101250.44;5104146;28;20024;-91
2023/03/22 01:21:30;;;;;;;9.02;6.20;;;;;;;11.35;76.46;101254.03;5098420;28;20206;-92
2023/03/22 01:24:06;;;;;;;8.40;6.45;;;;;;;11.34;76.54;101248.72;5111683;28;20515;-92
2023/03/22 01:26:36;;;;;;;9.47;6.40;;;;;;;11.23;76.46;101224.56;5101720;28;20023;-91
2023/03/22 01:29:22;;;;;;;7.93;5.95;;;;;;;11.34;76.57;101241.78;5081883;28;20527;-93
2023/03/22 01:31:50;;;;;;;9.32;6.32;;;;;;;11.24;76.57;101222.84;5095044;28;20044;-91
2023/03/22 01:34:21;;;;;;;8.52;5.95;;;;;;;11.07;76.38;101196.66;5086123;28;20035;-92
2023/03/22 01:36:51;;;;;;;8.63;6.15;;;;;;;11.17;76.86;101214.63;5101800;28;20404;-92
2023/03/22 01:39:21;;;;;;;8.13;6.10;;;;;;;11.26;76.84;101236.91;5090862;28;20055;-92
2023/03/22 01:41:48;;;;;;;8.57;6.28;;;;;;;11.20;76.59;101216.56;5090131;28;20035;-91
2023/03/22 01:44:16;;;;;;;8.82;6.10;;;;;;;11.33;76.30;101232.13;5090263;28;20023;-92
2023/03/22 01:46:55;;;;;;;8.82;6.22;;;;;;;11.26;76.50;101216.00;5078705;28;20024;-92
2023/03/22 01:49:53;;;;;;;8.82;6.18;;;;;;;11.34;76.61;101214.72;5100022;28;20110;-92
2023/03/22 01:52:20;;;;;;;9.10;6.35;;;;;;;11.14;76.70;101203.13;5089556;28;20032;-93
2023/03/22 01:54:58;;;;;;;8.18;6.20;;;;;;;11.19;76.82;101206.91;5108925;28;20020;-92
2023/03/22 01:57:40;;;;;;;9.00;6.13;;;;;;;11.12;76.30;101191.69;5082413;28;20051;-93
2023/03/22 02:00:14;;;;;;;9.57;6.65;;;;;;;11.18;76.34;101202.50;5086456;28;20024;-92
2023/03/22 02:02:42;;;;;;;8.88;6.22;;;;;;;11.32;76.51;101227.69;5089309;28;20043;-92
2023/03/22 02:05:08;;;;;;;8.57;6.07;;;;;;;11.12;76.47;101191.69;5091061;28;20023;-92
2023/03/22 02:07:51;;;;;;;;;;;;;;;11.34;76.32;101220.84;5099128;28;20031;-93
2023/03/22 02:11:06;;;;;;;8.48;6.03;;;;;;;11.30;76.39;101218.91;5101152;28;19959;-92
2023/03/22 02:14:24;;;;;;;9.18;6.00;;;;;;;11.29;76.37;101219.69;5101920;28;20055;-93
2023/03/22 02:17:11;;;;;;;8.95;5.85;;;;;;;11.20;76.73;101196.53;5050627;28;20036;-92
2023/03/22 02:20:16;;;;;;;9.60;6.53;;;;;;;11.29;76.47;101222.31;5106745;28;20028;-93
2023/03/22 02:23:03;;;;;;;9.63;6.25;;;;;;;10.96;76.31;101171.56;5066251;28;20032;-92
2023/03/22 02:26:09;;;;;;;8.40;5.80;;;;;;;11.30;76.63;101228.44;5111602;28;20557;-93
2023/03/22 02:28:46;;;;;;;10.25;6.25;;;;;;;11.29;76.64;101230.16;5102958;28;20040;-92
2023/03/22 02:31:14;;;;;;;9.77;6.47;;;;;;;11.28;76.57;101230.06;5109209;28;20027;-93
2023/03/22 02:34:18;;;;;;;8.85;6.43;;;;;;;11.28;76.67;101238.81;5115264;28;20026;-91
2023/03/22 02:37:05;;;;;;;11.48;6.75;;;;;;;11.21;76.63;101244.47;5106272;28;20055;-92
2023/03/22 02:40:15;;;;;;;9.07;6.03;;;;;;;11.26;76.91;101245.69;5113576;28;20084;-92
2023/03/22 02:43:13;;;;;;;10.57;6.85;;;;;;;11.28;76.43;101237.91;5113368;28;20043;-92
2023/03/22 02:46:18;;;;;;;10.85;7.47;;;;;;;11.24;76.73;101235.91;5113978;27;20022;-93
2023/03/22 02:49:06;;;;;;;10.20;6.53;;;;;;;11.28;76.69;101240.50;5095255;28;20035;-92
2023/03/22 02:51:47;;;;;;;8.82;6.15;;;;;;;11.19;76.47;101226.09;5096061;28;20040;-92
2023/03/22 02:55:06;;;;;;;8.82;6.05;;;;;;;11.28;76.85;101236.22;5094593;28;20048;-92
2023/03/22 02:57:43;;;;;;;11.05;6.38;;;;;;;11.23;76.69;101241.97;5105296;28;20184;-91
2023/03/22 03:00:15;;;;;;;;;;;;;;;11.29;76.58;101242.34;5098090;28;20032;-92
2023/03/22 03:02:51;;;;;;;9.88;6.93;;;;;;;11.13;76.91;101217.91;5083640;28;20381;-94
2023/03/22 03:05:58;;;;;;;9.80;6.53;;;;;;;11.27;76.80;101236.13;5096571;28;20031;-94
2023/03/22 03:08:37;;;;;;;9.73;7.18;;;;;;;11.08;76.82;101216.72;5099243;28;20038;-92
2023/03/22 03:11:14;;;;;;;10.15;6.50;;;;;;;11.20;76.51;101222.69;5103397;28;20023;-93
2023/03/22 03:13:55;;;;;;;10.77;7.18;;;;;;;11.20;76.85;101214.84;5113874;28;20043;-93
2023/03/22 03:16:26;;;;;;;9.65;6.60;;;;;;;10.82;76.71;101142.03;5113533;28;20554;-92
2023/03/22 03:19:27;;;;;;;10.50;6.90;;;;;;;11.27;76.58;101212.59;5088789;28;20552;-92
2023/03/22 03:22:08;;;;;;;10.98;6.55;;;;;;;11.25;76.75;101220.31;5083348;28;20028;-93
2023/03/22 03:24:39;;;;;;;12.73;7.07;;;;;;;11.26;76.88;101208.16;5092543;28;20043;-93
2023/03/22 03:27:16;;;;;;;9.10;6.50;;;;;;;11.13;76.86;101170.88;5104606;28;20024;-91
2023/03/22 03:29:59;;;;;;;8.45;6.15;;;;;;;11.28;76.72;101204.84;5096603;28;20479;-91
2023/03/22 03:32:34;;;;;;;8.65;6.07;;;;;;;11.12;76.82;101170.78;5092816;28;20031;-91
2023/03/22 03:35:21;;;;;;;11.75;6.85;;;;;;;11.19;77.04;101194.72;5088940;28;20058;-92
2023/03/22 03:37:58;;;;;;;9.23;6.18;;;;;;;11.11;76.82;101163.72;5112841;28;20621;-91
2023/03/22 03:40:34;;;;;;;9.75;6.82;;;;;;;11.26;76.81;101185.53;5113836;28;20042;-90
2023/03/22 03:43:05;;;;;;;9.73;6.45;;;;;;;11.27;76.85;101178.59;5105076;28;20485;-91
2023/03/22 03:45:31;;;;;;;12.75;6.53;;;;;;;11.15;76.68;101163.09;5090749;28;20851;-92
2023/03/22 03:48:00;;;;;;;8.27;5.85;;;;;;;10.90;76.54;101118.94;5096108;28;20020;-91
2023/03/22 03:50:27;;;;;;;10.68;6.20;;;;;;;10.91;76.92;101115.53;5092400;28;20031;-92
2023/03/22 03:52:57;;;;;;;9.50;6.53;;;;;;;11.25;76.49;101173.28;5086863;28;20033;-92
2023/03/22 03:55:27;;;;;;;10.85;6.53;;;;;;;11.07;76.98;101141.75;5088654;28;20024;-92
2023/03/22 03:58:04;;;;;;;8.98;6.55;;;;;;;10.82;76.62;101097.63;5076074;28;20024;-93
2023/03/22 04:00:37;;;;;;;10.65;6.93;;;;;;;11.20;76.80;101146.88;5082503;28;20042;-92
2023/03/22 04:03:05;;;;;;;10.15;6.60;;;;;;;11.10;76.73;101141.03;5109383;28;20390;-92
2023/03/22 04:05:32;;;;;;;12.68;7.50;;;;;;;11.04;77.07;101130.22;5113202;28;20091;-92
2023/03/22 04:08:17;;;;;;;10.25;6.75;;;;;;;11.23;76.82;101155.69;5096409;28;20083;-91
2023/03/22 04:10:57;;;;;;;14.02;6.57;;;;;;;11.06;76.96;101132.09;5085001;28;20069;-92
2023/03/22 04:13:41;;;;;;;15.70;7.45;;;;;;;11.19;77.30;101146.78;5104425;28;20059;-93
2023/03/22 04:16:20;;;;;;;10.23;7.00;;;;;;;11.21;76.95;101153.00;5085184;28;20070;-94
2023/03/22 04:18:53;;;;;;;11.60;7.13;;;;;;;11.14;77.01;101135.16;5085233;28;20515;-92
2023/03/22 04:21:25;;;;;;;10.63;6.53;;;;;;;11.15;76.84;101144.78;5100878;28;20028;-93
2023/03/22 04:23:50;;;;;;;10.55;7.35;;;;;;;11.17;76.83;101141.44;5102787;28;20020;-92
2023/03/22 04:26:16;;;;;;;11.07;7.22;;;;;;;11.11;77.48;101146.34;5082921;28;20096;-92
2023/03/22 04:28:44;;;;;;;14.18;7.40;;;;;;;11.12;77.15;101147.25;5088412;28;20041;-92
2023/03/22 04:31:10;;;;;;;9.52;6.75;;;;;;;10.93;76.61;101104.34;5091605;28;20024;-91
2023/03/22 04:33:45;;;;;;;12.30;7.30;;;;;;;11.14;77.10;101140.41;5075207;28;20038;-92
2023/03/22 04:36:16;;;;;;;9.50;6.57;;;;;;;11.07;76.79;101118.22;5112432;28;20032;-92
2023/03/22 04:38:54;;;;;;;10.93;7.30;;;;;;;11.22;76.72;101144.34;5091170;28;20040;-91
2023/03/22 04:41:25;;;;;;;10.07;6.60;;;;;;;11.18;76.61;101135.44;5099697;28;20023;-91
2023/03/22 04:43:50;;;;;;;10.18;6.50;;;;;;;11.04;76.40;101111.91;5109360;28;20103;-90
2023/03/22 04:46:20;;;;;;;8.85;6.30;;;;;;;11.10;76.31;101131.47;5111649;28;20087;-90
2023/03/22 04:48:45;;;;;;;12.18;6.78;;;;;;;11.06;76.78;101139.94;5111252;28;20035;-89
2023/03/22 04:51:11;;;;;;;12.63;7.50;;;;;;;11.12;76.83;101144.63;5087354;28;20020;-88
2023/03/22 04:53:38;;;;;;;11.07;6.40;;;;;;;11.10;76.58;101141.91;5101925;28;20028;-89
2023/03/22 04:56:09;;;;;;;12.25;7.65;;;;;;;11.22;76.45;101175.72;5102900;28;20027;-89
2023/03/22 04:58:40;;;;;;;11.75;7.85;;;;;;;11.19;76.85;101181.66;5102383;28;20489;-90
2023/03/22 05:01:09;;;;;;;14.73;8.50;;;;;;;11.21;76.64;101179.13;5097483;28;20588;-91
2023/03/22 05:03:36;;;;;;;12.07;7.75;;;;;;;10.90;76.53;101134.63;5102696;28;20028;-90
2023/03/22 05:06:03;;;;;;;11.07;7.75;;;;;;;11.06;76.68;101173.91;5101275;28;20485;-88
2023/03/22 05:08:29;;;;;;;10.95;7.20;;;;;;;11.14;76.56;101188.34;5097982;28;20023;-89
2023/03/22 05:10:58;;;;;;;9.90;7.10;;;;;;;11.25;76.30;101214.22;5105450;28;20063;-89
2023/03/22 05:13:26;;;;;;;10.68;6.90;;;;;;;11.12;76.72;101187.34;5097259;28;20140;-89
2023/03/22 05:15:51;;;;;;;9.88;6.47;;;;;;;10.99;76.47;101188.34;5086210;28;20019;-88
2023/03/22 05:18:23;;;;;;;10.38;6.57;;;;;;;11.19;76.55;101213.03;5103045;28;20030;-88
2023/03/22 05:20:49;;;;;;;11.02;6.97;;;;;;;10.94;76.61;101187.19;5104200;28;20088;-88
2023/03/22 05:23:18;;;;;;;10.02;6.93;;;;;;;11.04;76.81;101206.00;5098353;28;20028;-89
2023/03/22 05:25:47;;;;;;;11.02;6.85;;;;;;;11.04;76.47;101214.72;5100236;28;20026;-88
2023/03/22 05:28:13;;;;;;;11.50;7.05;;;;;;;10.99;77.25;101222.31;5095392;28;20031;-88
2023/03/22 05:30:41;;;;;;;;;;;;;;;11.12;76.93;101234.41;5114514;28;20050;-89
2023/03/22 05:33:08;;;;;;;10.13;6.65;;;;;;;11.14;77.07;101242.34;5112104;28;20537;-89
2023/03/22 05:35:36;;;;;;;12.45;7.70;;;;;;;10.92;77.49;101232.28;5097745;28;20036;-90
2023/03/22 05:38:03;;;;;;;11.88;7.45;;;;;;;11.15;77.09;101254.56;5099191;28;20023;-90
2023/03/22 05:40:29;;;;;;;11.77;7.10;;;;;;;11.12;77.21;101246.56;5087680;28;20066;-89
2023/03/22 05:42:55;;;;;;;12.00;7.28;;;;;;;10.91;76.96;101227.91;5102646;28;20527;-89
2023/03/22 05:45:21;;;;;;;11.18;7.15;;;;;;;10.87;77.11;101223.28;5095722;28;20070;-89
2023/03/22 05:47:48;;;;;;;11.75;7.22;;;;;;;11.03;77.29;101264.28;5104750;28;20063;-88
2023/03/22 05:50:18;;;;;;;10.45;6.97;;;;;;;11.02;77.34;101260.78;5111561;27;20024;-90
2023/03/22 05:52:44;;;;;;;9.95;6.63;;;;;;;10.83;76.99;101232.66;5108647;28;20185;-89
2023/03/22 05:55:12;;;;;;;9.10;6.50;;;;;;;11.10;77.15;101277.84;5089066;27;20040;-90
2023/03/22 05:57:39;;;;;;;11.05;6.90;;;;;;;10.99;76.73;101258.91;5084169;28;20489;-89
2023/03/22 06:00:12;;;;;;;11.05;7.00;;;;;;;10.90;76.95;101234.84;5111211;27;20032;-90
2023/03/22 06:02:39;;;;;;;12.65;7.85;;;;;;;10.86;77.17;101235.47;5104136;28;20028;-90
2023/03/22 06:05:06;;;;;;;11.20;6.90;;;;;;;10.85;77.08;101249.31;5082085;28;20381;-89
2023/03/22 06:07:31;;;;;;;12.50;7.60;;;;;;;10.92;77.33;101259.34;5101071;28;20172;-89
2023/03/22 06:09:57;;;;;;;10.60;7.10;;;;;;;10.99;77.32;101294.59;5086352;28;20122;-90
2023/03/22 06:12:24;;;;;;;12.25;7.00;;;;;;;11.00;76.99;101289.44;5093279;28;20048;-89
2023/03/22 06:14:52;;;;;;;9.80;6.82;;;;;;;10.86;77.03;101252.81;5111501;28;20040;-87
2023/03/22 06:17:20;;;;;;;10.10;7.15;;;;;;;10.87;76.87;101246.81;5103255;28;20416;-90
2023/03/22 06:19:46;;;;;;;12.00;6.97;;;;;;;11.11;77.13;101287.50;5105383;28;20024;-91
2023/03/22 06:22:16;;;;;;;9.75;6.80;;;;;;;11.05;77.28;101296.66;5097340;28;20106;-89
2023/03/22 06:25:01;;;;;;;9.52;6.78;;;;;;;11.13;77.16;101314.63;5094031;28;20024;-93
2023/03/22 06:27:27;;;;;;;10.13;6.93;;;;;;;11.16;76.82;101316.50;5095431;28;20034;-90
2023/03/22 06:29:54;;;;;;;10.55;6.82;;;;;;;11.00;77.22;101299.88;5107856;28;20405;-89
2023/03/22 06:32:25;;;;;;;12.43;7.47;;;;;;;11.14;76.97;101328.59;5089661;28;20024;-90
2023/03/22 06:34:53;;;;;;;9.68;6.70;;;;;;;10.92;76.84;101292.41;5097619;27;20039;-90
2023/03/22 06:41:24;;;;;;;10.93;6.80;;;;;;;11.16;76.70;101329.59;5097395;28;20051;-92
2023/03/22 06:44:54;;;;;;;9.88;6.43;;;;;;;11.10;76.97;101321.38;5061321;28;20032;-91
2023/03/22 06:47:40;;;;;;;10.52;6.85;;;;;;;10.91;76.91;101298.44;5007394;28;20507;-93
2023/03/22 06:54:26;;;;;;;10.57;6.05;;;;;;;11.12;76.92;101349.41;5033011;28;20179;-94
2023/03/22 06:56:56;;;;;;;9.38;6.65;;;;;;;10.99;76.80;101328.56;4995346;28;20530;-92
2023/03/22 07:03:55;;;;;;;9.95;6.15;;;;;;;11.17;76.76;101360.13;4916261;29;20462;-92
2023/03/22 07:21:01;;;;;;;9.15;6.38;;;;;;;11.09;76.93;101390.13;4906891;29;20055;-93
2023/03/22 07:23:41;;;;;;;9.93;6.65;;;;;;;11.20;76.72;101415.22;4881110;29;20052;-93
2023/03/22 07:26:06;;;;;;;9.13;6.53;;;;;;;10.97;76.80;101382.44;4908006;29;20063;-89
2023/03/22 07:28:47;;;;;;;8.73;5.90;;;;;;;11.21;76.62;101409.19;4953467;28;20043;-93
2023/03/22 07:31:51;;;;;;;9.55;6.55;;;;;;;11.19;76.57;101421.25;5063529;28;20123;-90
2023/03/22 07:34:27;;;;;;;8.98;5.97;;;;;;;11.11;76.78;101399.88;5087327;28;20031;-92
2023/03/22 07:37:15;;;;;;;10.00;6.50;;;;;;;11.22;76.77;101421.47;5065287;28;20035;-92
2023/03/22 07:39:46;;;;;;;8.85;6.35;;;;;;;11.15;76.82;101406.19;5090050;28;20032;-91
2023/03/22 07:42:33;;;;;;;8.98;6.45;;;;;;;11.20;76.54;101423.06;5074050;28;20123;-93
2023/03/22 07:45:20;;;;;;;8.75;6.22;;;;;;;11.19;76.73;101421.25;5076671;28;20031;-94
2023/03/22 07:47:53;;;;;;;8.75;6.38;;;;;;;11.22;76.86;101426.69;5058474;28;20068;-94
2023/03/22 07:50:21;;;;;;;8.93;6.22;;;;;;;11.03;76.68;101385.44;5066787;28;20488;-95
2023/03/22 07:52:59;;;;;;;9.27;6.32;;;;;;;11.07;76.58;101402.19;5076006;28;20028;-91
2023/03/22 07:55:57;;;;;;;9.00;6.10;;;;;;;11.25;76.51;101429.47;5079019;28;20028;-94
2023/03/22 07:58:28;;;;;;;10.07;6.70;;;;;;;11.21;76.39;101427.47;5068165;28;20024;-95
2023/03/22 08:01:20;;;;;;;9.48;6.38;;;;;;;11.24;76.40;101439.84;5103780;28;20032;-96
2023/03/22 08:03:53;;;;;;;9.70;6.15;;;;;;;11.02;76.59;101398.41;5059192;28;20032;-94
2023/03/22 08:06:20;;;;;;;8.52;6.13;;;;;;;11.13;76.32;101433.94;5056862;28;20394;-95
2023/03/22 08:09:06;;;;;;;9.25;5.72;;;;;;;11.15;76.39;101424.47;5058229;28;20485;-95
2023/03/22 08:11:35;;;;;;;9.70;5.82;;;;;;;11.21;76.31;101449.28;5055994;28;20039;-96
2023/03/22 08:14:24;;;;;;;8.20;5.93;;;;;;;11.25;76.47;101444.28;5040025;28;20478;-95
2023/03/22 08:17:12;;;;;;;9.10;6.18;;;;;;;11.26;76.49;101446.06;5058688;28;20028;-96
2023/03/22 08:19:48;;;;;;;11.98;6.95;;;;;;;11.12;76.93;101447.84;5086672;28;20114;-93
2023/03/22 08:22:28;;;;;;;9.43;6.50;;;;;;;11.23;76.61;101467.69;5093729;28;20063;-91
2023/03/22 08:28:18;;;;;;;9.68;6.68;;;;;;;11.19;76.52;101466.59;5073467;28;20413;-92
2023/03/22 08:31:15;;;;;;;8.88;5.63;;;;;;;11.20;76.80;101467.53;5045446;28;20035;-92
2023/03/22 08:34:20;;;;;;;9.82;6.70;;;;;;;11.23;76.85;101474.66;5075328;28;20028;-92
2023/03/22 08:36:50;;;;;;;10.23;6.90;;;;;;;11.15;76.79;101469.84;5074939;28;20491;-91
2023/03/22 08:39:32;;;;;;;9.38;6.72;;;;;;;11.21;76.96;101475.44;5092823;28;20051;-93
2023/03/22 08:42:11;;;;;;;9.68;6.72;;;;;;;11.25;77.00;101478.25;5061109;28;20413;-90
2023/03/22 08:44:36;;;;;;;8.98;6.25;;;;;;;11.04;76.40;101436.88;5042988;28;20033;-91
2023/03/22 08:47:07;;;;;;;8.88;6.20;;;;;;;11.15;76.87;101472.47;5059828;28;20034;-91
2023/03/22 08:49:34;;;;;;;10.55;6.97;;;;;;;11.18;76.64;101475.25;5047117;28;20035;-91
2023/03/22 08:52:15;;;;;;;12.60;6.82;;;;;;;10.85;77.35;101426.97;5058080;28;20028;-93
2023/03/22 08:54:55;;;;;;;11.30;6.80;;;;;;;11.18;77.05;101490.03;5081554;28;20046;-92
2023/03/22 08:57:22;;;;;;;9.25;6.53;;;;;;;10.96;77.00;101454.72;5045037;28;20028;-92
2023/03/22 08:59:48;;;;;;;9.32;6.25;;;;;;;10.85;77.23;101433.94;5055017;28;20019;-91
2023/03/22 09:02:18;;;;;;;9.70;6.50;;;;;;;10.97;77.25;101447.78;5072340;28;20175;-91
2023/03/22 09:04:50;;;;;;;10.10;6.55;;;;;;;11.01;77.43;101462.84;5037340;28;20033;-91
2023/03/22 09:07:19;;;;;;;9.55;6.53;;;;;;;10.96;77.35;101448.56;5050007;28;20116;-93
2023/03/22 09:09:45;;;;;;;10.02;6.50;;;;;;;11.28;77.04;101496.75;5060972;28;20024;-93
2023/03/22 09:12:18;;;;;;;9.80;6.40;;;;;;;11.17;77.85;101490.84;5075025;28;20473;-93
2023/03/22 09:14:50;;;;;;;10.57;6.93;;;;;;;11.30;77.48;101493.44;5092733;28;20596;-94
2023/03/22 09:17:18;;;;;;;11.18;6.38;;;;;;;11.32;77.36;101497.03;5057983;28;20024;-92
2023/03/22 09:20:03;;;;;;;9.88;6.28;;;;;;;11.28;77.83;101486.28;5057686;28;20058;-93
2023/03/22 09:22:34;;;;;;;12.77;6.60;;;;;;;11.16;78.08;101474.25;5084885;28;20055;-92
2023/03/22 09:25:04;;;;;;;8.63;6.05;;;;;;;11.16;78.13;101468.13;5084269;28;20027;-91
2023/03/22 09:27:31;;;;;;;11.32;5.97;;;;;;;11.28;78.10;101492.44;5077921;28;20038;-89
2023/03/22 09:29:59;;;;;;;8.90;6.43;;;;;;;11.26;78.17;101477.44;5094265;28;20024;-91
2023/03/22 09:32:31;;;;;;;9.00;6.35;;;;;;;11.07;77.98;101444.94;5093300;28;20023;-92
2023/03/22 09:35:31;;;;;;;10.55;6.07;;;;;;;11.35;77.95;101498.94;5065734;28;20028;-92
2023/03/22 09:38:07;;;;;;;10.38;6.32;;;;;;;11.34;78.34;101498.03;5057840;28;20031;-93
2023/03/22 09:40:36;;;;;;;9.48;6.25;;;;;;;11.21;78.26;101458.84;5072602;28;20039;-91
2023/03/22 09:43:26;;;;;;;8.95;6.20;;;;;;;11.41;78.44;101496.72;5094554;28;20099;-94
2023/03/22 09:46:06;;;;;;;11.55;6.47;;;;;;;11.07;78.33;101439.72;5080987;28;20016;-91
2023/03/22 09:48:38;;;;;;;8.43;5.85;;;;;;;11.43;78.35;101502.03;5080437;28;20016;-93
2023/03/22 09:51:27;;;;;;;10.68;6.05;;;;;;;11.33;78.37;101487.50;5063502;28;20028;-92
2023/03/22 09:53:54;;;;;;;9.10;5.82;;;;;;;11.24;78.86;101473.81;5112214;28;20024;-93
2023/03/22 09:56:30;;;;;;;9.02;6.05;;;;;;;11.43;78.54;101502.94;5073994;28;20544;-92
2023/03/22 09:59:06;;;;;;;8.70;5.80;;;;;;;11.47;79.12;101514.47;5074218;28;20028;-92
2023/03/22 10:01:46;;;;;;;;;;;;;;;11.47;78.92;101504.03;5073307;28;20485;-93
2023/03/22 10:04:31;;;;;;;9.02;5.95;;;;;;;11.44;79.19;101504.75;5068752;28;20300;-93
2023/03/22 10:07:22;;;;;;;9.02;5.72;;;;;;;11.42;79.43;101498.50;5077705;28;20082;-90
2023/03/22 10:10:17;;;;;;;8.75;5.60;;;;;;;11.47;79.33;101501.41;5074460;28;20024;-90
2023/03/22 10:13:06;;;;;;;9.27;5.68;;;;;;;11.54;79.53;101496.66;5093978;28;20027;-89
2023/03/22 10:15:42;;;;;;;7.28;5.30;;;;;;;11.56;79.92;101487.19;5094334;28;20039;-91
2023/03/22 10:18:24;;;;;;;7.35;5.68;;;;;;;11.55;80.16;101502.78;5077387;28;20480;-93
2023/03/22 10:21:00;;;;;;;9.82;5.85;;;;;;;11.52;79.36;101492.16;5080877;28;20044;-90
2023/03/22 10:23:33;;;;;;;9.82;5.90;;;;;;;11.45;79.69;101469.94;5056471;28;20020;-93
2023/03/22 10:26:01;;;;;;;8.25;5.45;;;;;;;11.56;80.07;101487.19;5094387;28;20513;-93
2023/03/22 10:28:36;;;;;;;7.38;5.18;;;;;;;11.60;80.07;101490.91;5085720;28;20053;-90
2023/03/22 10:31:02;;;;;;;8.40;5.32;;;;;;;11.57;79.98;101475.91;5090559;28;20034;-92
2023/03/22 10:33:59;;;;;;;6.78;5.15;;;;;;;11.57;80.23;101485.47;5108834;28;20023;-89
2023/03/22 10:36:33;;;;;;;7.15;5.22;;;;;;;11.21;80.30;101409.19;5106334;28;20393;-90
2023/03/22 10:39:09;;;;;;;10.23;5.70;;;;;;;11.59;79.95;101460.31;5093013;28;20027;-90
2023/03/22 10:41:45;;;;;;;7.28;4.90;;;;;;;11.61;80.28;101463.94;5107170;28;20024;-91
2023/03/22 10:44:16;;;;;;;9.07;5.20;;;;;;;11.66;80.17;101472.06;5094408;28;20024;-90
2023/03/22 10:46:44;;;;;;;7.25;5.20;;;;;;;11.68;80.15;101478.28;5107715;28;20459;-90
2023/03/22 10:49:32;;;;;;;9.35;5.35;;;;;;;11.68;80.29;101476.56;5104725;28;20031;-92
2023/03/22 10:52:22;;;;;;;8.70;5.00;;;;;;;11.71;79.89;101474.16;5093065;28;20051;-91
2023/03/22 10:54:56;;;;;;;7.72;5.15;;;;;;;11.55;80.17;101442.63;5099279;28;20089;-92
2023/03/22 11:00:53;;;;;;;8.35;5.32;;;;;;;11.61;79.81;101448.22;5104051;28;20066;-92
2023/03/22 11:03:42;;;;;;;8.23;5.45;;;;;;;11.73;80.11;101461.16;5105620;28;20028;-91
2023/03/22 11:06:15;;;;;;;6.97;5.05;;;;;;;11.65;80.31;101447.59;5099030;28;20032;-93
2023/03/22 11:08:53;;;;;;;9.55;4.82;;;;;;;11.64;80.42;101442.28;5114587;28;20092;-90
2023/03/22 11:11:22;;;;;;;7.00;5.03;;;;;;;11.60;80.42;101428.13;5106262;28;20541;-92
2023/03/22 11:13:58;;;;;;;7.22;4.70;;;;;;;11.48;80.33;101403.84;5114026;27;20160;-92
2023/03/22 11:16:27;;;;;;;10.48;5.63;;;;;;;11.71;80.38;101440.13;5101846;28;20024;-91
2023/03/22 11:19:00;;;;;;;8.00;4.68;;;;;;;11.79;80.20;101451.97;5087762;28;20040;-92
2023/03/22 11:22:05;;;;;;;5.95;4.30;;;;;;;11.82;79.99;101446.91;5107033;28;20431;-92
2023/03/22 11:24:32;;;;;;;5.82;4.50;;;;;;;11.56;80.23;101405.22;5100495;28;20027;-93
2023/03/22 11:27:27;;;;;;;6.63;4.85;;;;;;;11.82;80.37;101449.50;5101914;28;20039;-93
2023/03/22 11:30:21;;;;;;;8.35;4.85;;;;;;;11.72;80.73;101434.06;5076815;28;20032;-92
2023/03/22 11:33:02;;;;;;;6.60;4.68;;;;;;;11.69;80.44;101428.66;5090047;28;20080;-93
2023/03/22 11:35:38;;;;;;;6.43;4.38;;;;;;;11.85;80.60;101440.03;5092225;28;20023;-93
2023/03/22 11:38:57;;;;;;;5.60;4.32;;;;;;;11.85;80.62;101448.78;5093457;28;20032;-92
2023/03/22 11:41:56;;;;;;;7.18;4.47;;;;;;;11.86;80.81;101439.25;5094656;28;20508;-94
2023/03/22 11:44:25;;;;;;;7.28;4.45;;;;;;;11.89;80.77;101434.22;5094031;28;20032;-91
2023/03/22 11:47:24;;;;;;;6.07;4.57;;;;;;;11.87;80.81;101436.69;5093272;28;20028;-93
2023/03/22 11:53:18;;;;;;;5.88;4.35;;;;;;;11.92;80.61;101435.31;5114620;28;20043;-92
2023/03/22 11:56:17;;;;;;;7.07;4.65;;;;;;;11.92;80.80;101432.69;5083383;28;20118;-93
2023/03/22 11:59:02;;;;;;;5.63;4.28;;;;;;;11.90;81.32;101428.19;5113500;28;20061;-94
2023/03/22 12:01:38;;;;;;;6.13;4.07;;;;;;;11.88;81.73;101427.16;5082736;28;20028;-93
2023/03/22 12:04:10;;;;;;;7.03;4.38;;;;;;;11.81;81.29;101412.81;5093132;28;20024;-93
2023/03/22 12:06:39;;;;;;;6.50;4.55;;;;;;;11.91;81.25;101427.34;5093073;28;20078;-92
2023/03/22 12:09:40;;;;;;;6.47;4.30;;;;;;;11.89;81.51;101408.03;5087102;28;20095;-91
2023/03/22 12:12:20;;;;;;;6.35;4.65;;;;;;;11.92;81.39;101405.63;5102357;28;20077;-92
2023/03/22 12:14:59;;;;;;;6.72;4.30;;;;;;;11.96;81.44;101410.22;5094658;28;20492;-92
2023/03/22 12:17:49;;;;;;;7.50;4.60;;;;;;;11.98;80.90;101412.13;5092312;28;20493;-92
2023/03/22 12:20:39;;;;;;;7.07;4.70;;;;;;;11.96;81.56;101416.38;5103755;28;20557;-92
2023/03/22 12:23:17;;;;;;;7.10;4.55;;;;;;;11.96;81.90;101418.97;5055458;28;20040;-92
2023/03/22 12:25:54;;;;;;;5.72;4.10;;;;;;;11.62;81.98;101358.50;5061120;28;20404;-92
2023/03/22 12:28:32;;;;;;;5.45;4.05;;;;;;;11.97;81.75;101420.78;5085292;28;20038;-87
2023/03/22 12:31:35;;;;;;;5.07;3.80;;;;;;;12.01;81.66;101420.13;5069945;28;20095;-93
2023/03/22 12:34:20;;;;;;;6.13;4.28;;;;;;;11.99;81.82;101429.63;5054388;28;20032;-93
2023/03/22 12:37:19;;;;;;;6.60;3.95;;;;;;;12.02;81.56;101419.34;5069466;28;20021;-95
2023/03/22 12:40:22;;;;;;;6.68;4.10;;;;;;;12.05;82.00;101420.34;5080367;28;20089;-93
2023/03/22 12:46:18;;;;;;;5.47;3.85;;;;;;;12.01;82.98;101406.16;5081334;28;20054;-91
2023/03/22 12:55:35;;;;;;;6.70;3.80;;;;;;;12.10;84.21;101427.63;5085673;28;20410;-94